sensor_id;sensor_type;location;lat;lon;timestamp;pressure;altitude;pressure_sealevel;temperature;humidity
77526;BME280;66627;29.424;-98.496;2023-09-19T00:01:20;98632.00;;;36.37;18.56
77526;BME280;66627;29.424;-98.496;2023-09-19T00:03:45;98626.34;;;35.95;18.26
77526;BME280;66627;29.424;-98.496;2023-09-19T00:06:10;98626.75;;;36.18;18.43
77526;BME280;66627;29.424;-98.496;2023-09-19T00:08:36;98628.07;;;36.16;18.18
77526;BME280;66627;29.424;-98.496;2023-09-19T00:11:02;98628.83;;;35.28;18.71
77526;BME280;66627;29.424;-98.496;2023-09-19T00:13:27;98631.22;;;36.10;18.81
77526;BME280;66627;29.424;-98.496;2023-09-19T00:15:52;98631.85;;;35.69;18.54
77526;BME280;66627;29.424;-98.496;2023-09-19T00:18:18;98631.70;;;35.17;18.65
77526;BME280;66627;29.424;-98.496;2023-09-19T00:20:42;98634.94;;;35.83;18.56
77526;BME280;66627;29.424;-98.496;2023-09-19T00:23:07;98634.85;;;35.71;18.89
77526;BME280;66627;29.424;-98.496;2023-09-19T00:25:33;98636.15;;;35.02;20.55
77526;BME280;66627;29.424;-98.496;2023-09-19T00:27:58;98635.32;;;34.65;18.58
77526;BME280;66627;29.424;-98.496;2023-09-19T00:30:23;98632.39;;;35.23;19.22
77526;BME280;66627;29.424;-98.496;2023-09-19T00:32:48;98632.93;;;35.73;18.32
77526;BME280;66627;29.424;-98.496;2023-09-19T00:35:13;98636.00;;;36.09;18.41
77526;BME280;66627;29.424;-98.496;2023-09-19T00:37:38;98636.57;;;35.91;18.33
77526;BME280;66627;29.424;-98.496;2023-09-19T00:40:05;98637.40;;;35.79;19.24
77526;BME280;66627;29.424;-98.496;2023-09-19T00:42:29;98638.58;;;35.13;19.07
77526;BME280;66627;29.424;-98.496;2023-09-19T00:44:54;98638.33;;;35.62;18.25
77526;BME280;66627;29.424;-98.496;2023-09-19T00:47:19;98640.84;;;35.67;18.28
77526;BME280;66627;29.424;-98.496;2023-09-19T00:49:44;98640.00;;;35.44;18.22
77526;BME280;66627;29.424;-98.496;2023-09-19T00:52:11;98644.61;;;36.01;18.18
77526;BME280;66627;29.424;-98.496;2023-09-19T00:54:35;98647.09;;;36.10;18.18
77526;BME280;66627;29.424;-98.496;2023-09-19T00:57:00;98646.36;;;35.99;18.39
77526;BME280;66627;29.424;-98.496;2023-09-19T00:59:25;98647.55;;;35.80;18.40
77526;BME280;66627;29.424;-98.496;2023-09-19T01:01:51;98646.74;;;35.83;18.29
77526;BME280;66627;29.424;-98.496;2023-09-19T01:04:15;98641.47;;;35.85;18.87
77526;BME280;66627;29.424;-98.496;2023-09-19T01:06:41;98644.45;;;35.79;19.24
77526;BME280;66627;29.424;-98.496;2023-09-19T01:09:06;98645.47;;;34.83;19.77
77526;BME280;66627;29.424;-98.496;2023-09-19T01:11:37;98645.78;;;35.15;18.34
77526;BME280;66627;29.424;-98.496;2023-09-19T01:14:02;98647.31;;;34.79;19.00
77526;BME280;66627;29.424;-98.496;2023-09-19T01:16:32;98648.12;;;35.09;18.33
77526;BME280;66627;29.424;-98.496;2023-09-19T01:18:55;98649.72;;;34.73;18.66
77526;BME280;66627;29.424;-98.496;2023-09-19T01:21:19;98647.33;;;35.13;18.23
77526;BME280;66627;29.424;-98.496;2023-09-19T01:23:52;98646.49;;;34.98;17.79
77526;BME280;66627;29.424;-98.496;2023-09-19T01:26:12;98648.00;;;34.50;18.45
77526;BME280;66627;29.424;-98.496;2023-09-19T01:28:34;98650.29;;;35.31;18.54
77526;BME280;66627;29.424;-98.496;2023-09-19T01:30:57;98653.88;;;35.01;18.63
77526;BME280;66627;29.424;-98.496;2023-09-19T01:33:18;98657.71;;;34.23;19.72
77526;BME280;66627;29.424;-98.496;2023-09-19T01:35:44;98659.15;;;34.21;18.68
77526;BME280;66627;29.424;-98.496;2023-09-19T01:38:09;98661.14;;;34.30;18.54
77526;BME280;66627;29.424;-98.496;2023-09-19T01:40:41;98662.32;;;34.07;18.83
77526;BME280;66627;29.424;-98.496;2023-09-19T01:43:09;98663.66;;;34.45;18.88
77526;BME280;66627;29.424;-98.496;2023-09-19T01:45:31;98665.48;;;34.36;19.30
77526;BME280;66627;29.424;-98.496;2023-09-19T01:47:52;98667.02;;;33.87;20.35
77526;BME280;66627;29.424;-98.496;2023-09-19T01:50:21;98672.07;;;34.32;19.83
77526;BME280;66627;29.424;-98.496;2023-09-19T01:52:48;98671.89;;;34.10;20.26
77526;BME280;66627;29.424;-98.496;2023-09-19T01:55:09;98677.91;;;33.51;20.70
77526;BME280;66627;29.424;-98.496;2023-09-19T01:57:37;98680.65;;;32.95;21.85
77526;BME280;66627;29.424;-98.496;2023-09-19T02:00:02;98682.07;;;33.25;21.97
77526;BME280;66627;29.424;-98.496;2023-09-19T02:02:22;98683.72;;;33.30;22.00
77526;BME280;66627;29.424;-98.496;2023-09-19T02:04:47;98686.14;;;32.88;22.66
77526;BME280;66627;29.424;-98.496;2023-09-19T02:07:13;98687.46;;;32.88;23.11
77526;BME280;66627;29.424;-98.496;2023-09-19T02:09:38;98693.25;;;32.85;23.12
77526;BME280;66627;29.424;-98.496;2023-09-19T02:12:05;98695.31;;;32.37;23.48
77526;BME280;66627;29.424;-98.496;2023-09-19T02:14:29;98704.12;;;32.90;23.77
77526;BME280;66627;29.424;-98.496;2023-09-19T02:16:55;98703.37;;;32.57;24.67
77526;BME280;66627;29.424;-98.496;2023-09-19T02:19:20;98707.74;;;32.06;25.08
77526;BME280;66627;29.424;-98.496;2023-09-19T02:21:45;98714.04;;;31.85;25.66
77526;BME280;66627;29.424;-98.496;2023-09-19T02:24:11;98713.82;;;31.48;26.65
77526;BME280;66627;29.424;-98.496;2023-09-19T02:26:36;98722.99;;;31.52;26.92
77526;BME280;66627;29.424;-98.496;2023-09-19T02:29:01;98728.13;;;31.17;28.15
77526;BME280;66627;29.424;-98.496;2023-09-19T02:31:26;98731.87;;;31.50;28.54
77526;BME280;66627;29.424;-98.496;2023-09-19T02:33:52;98735.60;;;31.43;29.04
77526;BME280;66627;29.424;-98.496;2023-09-19T02:36:18;98738.52;;;30.76;30.13
77526;BME280;66627;29.424;-98.496;2023-09-19T02:38:43;98741.47;;;30.80;30.71
77526;BME280;66627;29.424;-98.496;2023-09-19T02:41:09;98747.94;;;30.92;30.84
77526;BME280;66627;29.424;-98.496;2023-09-19T02:43:34;98749.01;;;30.83;31.00
77526;BME280;66627;29.424;-98.496;2023-09-19T02:46:00;98754.98;;;31.08;31.42
77526;BME280;66627;29.424;-98.496;2023-09-19T02:48:25;98761.89;;;30.68;31.88
77526;BME280;66627;29.424;-98.496;2023-09-19T02:50:50;98771.14;;;30.65;31.99
77526;BME280;66627;29.424;-98.496;2023-09-19T02:53:16;98773.78;;;30.60;32.19
77526;BME280;66627;29.424;-98.496;2023-09-19T02:55:41;98779.41;;;30.85;32.78
77526;BME280;66627;29.424;-98.496;2023-09-19T02:58:07;98778.01;;;30.31;33.51
77526;BME280;66627;29.424;-98.496;2023-09-19T03:00:34;98772.49;;;30.27;33.87
77526;BME280;66627;29.424;-98.496;2023-09-19T03:03:01;98779.83;;;29.90;34.38
77526;BME280;66627;29.424;-98.496;2023-09-19T03:05:24;98782.59;;;30.33;33.79
77526;BME280;66627;29.424;-98.496;2023-09-19T03:07:50;98784.43;;;29.97;34.19
77526;BME280;66627;29.424;-98.496;2023-09-19T03:10:14;98785.43;;;29.96;34.39
77526;BME280;66627;29.424;-98.496;2023-09-19T03:12:40;98787.35;;;29.39;34.95
77526;BME280;66627;29.424;-98.496;2023-09-19T03:15:05;98791.84;;;29.71;34.87
77526;BME280;66627;29.424;-98.496;2023-09-19T03:17:30;98789.89;;;30.07;34.66
77526;BME280;66627;29.424;-98.496;2023-09-19T03:20:06;98795.92;;;29.78;34.69
77526;BME280;66627;29.424;-98.496;2023-09-19T03:24:47;98800.72;;;30.00;34.83
77526;BME280;66627;29.424;-98.496;2023-09-19T03:27:14;98800.64;;;29.39;35.43
77526;BME280;66627;29.424;-98.496;2023-09-19T03:29:39;98808.36;;;28.98;35.80
77526;BME280;66627;29.424;-98.496;2023-09-19T03:32:05;98816.22;;;29.84;35.07
77526;BME280;66627;29.424;-98.496;2023-09-19T03:34:29;98813.70;;;29.29;35.82
77526;BME280;66627;29.424;-98.496;2023-09-19T03:36:55;98813.61;;;29.24;35.87
77526;BME280;66627;29.424;-98.496;2023-09-19T03:39:22;98812.38;;;30.12;35.09
77526;BME280;66627;29.424;-98.496;2023-09-19T03:41:47;98814.96;;;29.65;35.24
77526;BME280;66627;29.424;-98.496;2023-09-19T03:44:12;98814.27;;;29.90;34.88
77526;BME280;66627;29.424;-98.496;2023-09-19T03:46:38;98812.94;;;29.54;35.35
77526;BME280;66627;29.424;-98.496;2023-09-19T03:49:03;98817.04;;;29.34;35.70
77526;BME280;66627;29.424;-98.496;2023-09-19T03:51:29;98816.04;;;29.18;36.06
77526;BME280;66627;29.424;-98.496;2023-09-19T03:53:54;98818.17;;;29.41;36.29
77526;BME280;66627;29.424;-98.496;2023-09-19T03:56:19;98820.49;;;30.16;35.48
77526;BME280;66627;29.424;-98.496;2023-09-19T03:58:45;98820.47;;;30.06;35.67
77526;BME280;66627;29.424;-98.496;2023-09-19T04:01:11;98825.63;;;29.36;36.15
77526;BME280;66627;29.424;-98.496;2023-09-19T04:03:36;98827.50;;;29.23;36.23
77526;BME280;66627;29.424;-98.496;2023-09-19T04:06:02;98830.26;;;29.98;35.51
77526;BME280;66627;29.424;-98.496;2023-09-19T04:08:27;98826.93;;;28.71;36.83
77526;BME280;66627;29.424;-98.496;2023-09-19T04:10:54;98831.02;;;28.77;37.22
77526;BME280;66627;29.424;-98.496;2023-09-19T04:13:18;98831.88;;;28.80;37.05
77526;BME280;66627;29.424;-98.496;2023-09-19T04:15:44;98832.41;;;28.89;37.02
77526;BME280;66627;29.424;-98.496;2023-09-19T04:18:09;98830.78;;;28.62;37.02
77526;BME280;66627;29.424;-98.496;2023-09-19T04:20:35;98833.16;;;28.67;37.09
77526;BME280;66627;29.424;-98.496;2023-09-19T04:23:01;98826.12;;;28.93;36.94
77526;BME280;66627;29.424;-98.496;2023-09-19T04:25:26;98824.85;;;28.76;37.25
77526;BME280;66627;29.424;-98.496;2023-09-19T04:27:52;98826.03;;;29.26;36.19
77526;BME280;66627;29.424;-98.496;2023-09-19T04:30:17;98826.25;;;28.43;37.20
77526;BME280;66627;29.424;-98.496;2023-09-19T04:32:47;98830.56;;;29.58;35.51
77526;BME280;66627;29.424;-98.496;2023-09-19T04:35:09;98825.52;;;29.52;35.30
77526;BME280;66627;29.424;-98.496;2023-09-19T04:37:35;98823.36;;;28.91;36.01
77526;BME280;66627;29.424;-98.496;2023-09-19T04:39:59;98827.47;;;28.58;36.54
77526;BME280;66627;29.424;-98.496;2023-09-19T04:42:24;98828.43;;;28.89;36.35
77526;BME280;66627;29.424;-98.496;2023-09-19T04:44:50;98827.57;;;28.36;36.79
77526;BME280;66627;29.424;-98.496;2023-09-19T04:47:15;98824.19;;;29.16;35.94
77526;BME280;66627;29.424;-98.496;2023-09-19T04:49:40;98825.62;;;28.65;36.41
77526;BME280;66627;29.424;-98.496;2023-09-19T04:52:05;98828.47;;;28.65;36.46
77526;BME280;66627;29.424;-98.496;2023-09-19T04:54:31;98827.64;;;28.13;37.13
77526;BME280;66627;29.424;-98.496;2023-09-19T04:56:57;98826.00;;;28.63;36.91
77526;BME280;66627;29.424;-98.496;2023-09-19T04:59:23;98820.18;;;27.81;37.47
77526;BME280;66627;29.424;-98.496;2023-09-19T05:01:48;98818.03;;;27.90;37.74
77526;BME280;66627;29.424;-98.496;2023-09-19T05:04:13;98814.82;;;28.26;37.32
77526;BME280;66627;29.424;-98.496;2023-09-19T05:06:38;98813.63;;;28.72;37.32
77526;BME280;66627;29.424;-98.496;2023-09-19T05:09:04;98814.06;;;28.50;37.78
77526;BME280;66627;29.424;-98.496;2023-09-19T05:11:29;98814.12;;;28.45;37.36
77526;BME280;66627;29.424;-98.496;2023-09-19T05:13:54;98814.42;;;28.93;37.36
77526;BME280;66627;29.424;-98.496;2023-09-19T05:16:19;98811.55;;;28.33;38.28
77526;BME280;66627;29.424;-98.496;2023-09-19T05:18:45;98810.98;;;27.87;39.13
77526;BME280;66627;29.424;-98.496;2023-09-19T05:21:10;98811.78;;;28.09;38.72
77526;BME280;66627;29.424;-98.496;2023-09-19T05:23:35;98814.40;;;28.85;37.73
77526;BME280;66627;29.424;-98.496;2023-09-19T05:26:01;98818.13;;;28.08;38.91
77526;BME280;66627;29.424;-98.496;2023-09-19T05:28:26;98825.98;;;28.83;38.03
77526;BME280;66627;29.424;-98.496;2023-09-19T05:30:52;98826.39;;;28.24;39.48
77526;BME280;66627;29.424;-98.496;2023-09-19T05:33:17;98828.28;;;28.77;38.82
77526;BME280;66627;29.424;-98.496;2023-09-19T05:35:42;98830.29;;;27.78;39.59
77526;BME280;66627;29.424;-98.496;2023-09-19T05:38:08;98828.06;;;28.68;39.02
77526;BME280;66627;29.424;-98.496;2023-09-19T05:40:33;98827.52;;;27.76;40.41
77526;BME280;66627;29.424;-98.496;2023-09-19T05:42:58;98828.99;;;27.55;40.75
77526;BME280;66627;29.424;-98.496;2023-09-19T05:45:24;98828.00;;;28.34;39.94
77526;BME280;66627;29.424;-98.496;2023-09-19T05:47:50;98825.19;;;28.57;39.13
77526;BME280;66627;29.424;-98.496;2023-09-19T05:50:14;98828.97;;;27.81;40.45
77526;BME280;66627;29.424;-98.496;2023-09-19T05:52:40;98829.40;;;28.74;39.51
77526;BME280;66627;29.424;-98.496;2023-09-19T05:55:06;98825.41;;;28.05;40.49
77526;BME280;66627;29.424;-98.496;2023-09-19T05:57:31;98828.25;;;28.18;40.50
77526;BME280;66627;29.424;-98.496;2023-09-19T05:59:56;98835.80;;;27.50;41.65
77526;BME280;66627;29.424;-98.496;2023-09-19T06:02:22;98831.10;;;27.56;42.66
77526;BME280;66627;29.424;-98.496;2023-09-19T06:04:47;98828.65;;;27.54;42.73
77526;BME280;66627;29.424;-98.496;2023-09-19T06:07:13;98828.27;;;27.64;42.75
77526;BME280;66627;29.424;-98.496;2023-09-19T06:09:38;98826.05;;;28.08;41.88
77526;BME280;66627;29.424;-98.496;2023-09-19T06:12:04;98830.83;;;27.00;44.09
77526;BME280;66627;29.424;-98.496;2023-09-19T06:14:29;98821.90;;;28.00;42.49
77526;BME280;66627;29.424;-98.496;2023-09-19T06:16:55;98816.13;;;28.17;42.10
77526;BME280;66627;29.424;-98.496;2023-09-19T06:19:20;98813.54;;;28.47;41.79
77526;BME280;66627;29.424;-98.496;2023-09-19T06:21:47;98813.24;;;28.13;42.16
77526;BME280;66627;29.424;-98.496;2023-09-19T06:24:17;98819.93;;;27.01;44.08
77526;BME280;66627;29.424;-98.496;2023-09-19T06:26:47;98821.10;;;27.24;43.81
77526;BME280;66627;29.424;-98.496;2023-09-19T06:29:02;98819.77;;;27.64;43.37
77526;BME280;66627;29.424;-98.496;2023-09-19T06:31:28;98816.87;;;27.92;43.29
77526;BME280;66627;29.424;-98.496;2023-09-19T06:33:53;98818.20;;;27.67;43.32
77526;BME280;66627;29.424;-98.496;2023-09-19T06:36:19;98814.58;;;28.04;42.86
77526;BME280;66627;29.424;-98.496;2023-09-19T06:38:44;98813.99;;;28.69;42.22
77526;BME280;66627;29.424;-98.496;2023-09-19T06:41:10;98815.64;;;28.15;42.62
77526;BME280;66627;29.424;-98.496;2023-09-19T06:43:36;98819.34;;;27.70;43.56
77526;BME280;66627;29.424;-98.496;2023-09-19T06:46:01;98820.76;;;27.05;44.17
77526;BME280;66627;29.424;-98.496;2023-09-19T06:48:26;98826.09;;;27.07;44.53
77526;BME280;66627;29.424;-98.496;2023-09-19T06:50:54;98821.35;;;27.55;44.11
77526;BME280;66627;29.424;-98.496;2023-09-19T06:53:17;98827.15;;;27.31;44.73
77526;BME280;66627;29.424;-98.496;2023-09-19T06:55:43;98828.58;;;27.28;44.53
77526;BME280;66627;29.424;-98.496;2023-09-19T06:58:08;98833.76;;;28.22;43.57
77526;BME280;66627;29.424;-98.496;2023-09-19T07:00:34;98837.06;;;27.17;44.77
77526;BME280;66627;29.424;-98.496;2023-09-19T07:03:01;98838.16;;;27.49;44.35
77526;BME280;66627;29.424;-98.496;2023-09-19T07:05:24;98839.95;;;27.58;45.29
77526;BME280;66627;29.424;-98.496;2023-09-19T07:10:16;98844.09;;;26.93;46.32
77526;BME280;66627;29.424;-98.496;2023-09-19T07:12:41;98839.17;;;26.42;47.12
77526;BME280;66627;29.424;-98.496;2023-09-19T07:15:07;98842.67;;;27.21;45.49
77526;BME280;66627;29.424;-98.496;2023-09-19T07:17:32;98840.33;;;27.12;46.52
77526;BME280;66627;29.424;-98.496;2023-09-19T07:19:57;98834.99;;;28.07;44.93
77526;BME280;66627;29.424;-98.496;2023-09-19T07:22:22;98835.92;;;27.34;45.71
77526;BME280;66627;29.424;-98.496;2023-09-19T07:24:48;98836.50;;;26.75;46.82
77526;BME280;66627;29.424;-98.496;2023-09-19T07:27:13;98834.58;;;26.35;47.71
77526;BME280;66627;29.424;-98.496;2023-09-19T07:29:38;98834.42;;;27.15;46.95
77526;BME280;66627;29.424;-98.496;2023-09-19T07:32:05;98839.91;;;26.69;47.62
77526;BME280;66627;29.424;-98.496;2023-09-19T07:34:30;98841.02;;;26.21;48.25
77526;BME280;66627;29.424;-98.496;2023-09-19T07:36:56;98842.52;;;26.21;48.67
77526;BME280;66627;29.424;-98.496;2023-09-19T07:39:21;98847.64;;;26.26;48.75
77526;BME280;66627;29.424;-98.496;2023-09-19T07:41:47;98843.32;;;26.81;47.49
77526;BME280;66627;29.424;-98.496;2023-09-19T07:44:12;98848.69;;;25.86;49.48
77526;BME280;66627;29.424;-98.496;2023-09-19T07:46:37;98847.11;;;26.00;49.35
77526;BME280;66627;29.424;-98.496;2023-09-19T07:49:03;98845.21;;;26.43;48.89
77526;BME280;66627;29.424;-98.496;2023-09-19T07:51:28;98845.11;;;26.36;49.05
77526;BME280;66627;29.424;-98.496;2023-09-19T07:53:53;98840.63;;;27.01;47.70
77526;BME280;66627;29.424;-98.496;2023-09-19T07:56:19;98842.10;;;26.19;49.17
77526;BME280;66627;29.424;-98.496;2023-09-19T07:58:44;98840.47;;;25.61;50.21
77526;BME280;66627;29.424;-98.496;2023-09-19T08:01:10;98838.07;;;26.62;48.55
77526;BME280;66627;29.424;-98.496;2023-09-19T08:03:35;98836.87;;;26.55;48.57
77526;BME280;66627;29.424;-98.496;2023-09-19T08:06:01;98838.07;;;27.12;47.66
77526;BME280;66627;29.424;-98.496;2023-09-19T08:08:26;98839.34;;;27.37;47.35
77526;BME280;66627;29.424;-98.496;2023-09-19T08:10:54;98837.37;;;27.27;47.34
77526;BME280;66627;29.424;-98.496;2023-09-19T08:13:17;98835.17;;;27.47;47.03
77526;BME280;66627;29.424;-98.496;2023-09-19T08:15:44;98828.06;;;26.41;48.47
77526;BME280;66627;29.424;-98.496;2023-09-19T08:18:09;98831.04;;;26.47;48.75
77526;BME280;66627;29.424;-98.496;2023-09-19T08:20:33;98831.39;;;26.96;48.21
77526;BME280;66627;29.424;-98.496;2023-09-19T08:22:59;98825.45;;;28.25;45.72
77526;BME280;66627;29.424;-98.496;2023-09-19T08:25:25;98825.70;;;27.36;46.88
77526;BME280;66627;29.424;-98.496;2023-09-19T08:27:51;98820.70;;;27.70;46.79
77526;BME280;66627;29.424;-98.496;2023-09-19T08:30:17;98820.06;;;28.24;45.69
77526;BME280;66627;29.424;-98.496;2023-09-19T08:32:42;98824.16;;;27.58;46.78
77526;BME280;66627;29.424;-98.496;2023-09-19T08:35:07;98819.36;;;28.01;45.99
77526;BME280;66627;29.424;-98.496;2023-09-19T08:37:32;98819.67;;;27.54;47.09
77526;BME280;66627;29.424;-98.496;2023-09-19T08:39:58;98815.01;;;27.65;46.82
77526;BME280;66627;29.424;-98.496;2023-09-19T08:42:23;98815.02;;;27.40;47.03
77526;BME280;66627;29.424;-98.496;2023-09-19T08:44:49;98813.77;;;27.14;47.75
77526;BME280;66627;29.424;-98.496;2023-09-19T08:47:15;98808.50;;;27.75;46.63
77526;BME280;66627;29.424;-98.496;2023-09-19T08:49:48;98806.15;;;27.43;47.25
77526;BME280;66627;29.424;-98.496;2023-09-19T08:52:15;98803.27;;;27.43;47.31
77526;BME280;66627;29.424;-98.496;2023-09-19T08:54:35;98798.57;;;27.68;46.96
77526;BME280;66627;29.424;-98.496;2023-09-19T08:57:03;98799.88;;;27.57;47.57
77526;BME280;66627;29.424;-98.496;2023-09-19T08:59:24;98797.43;;;27.93;46.42
77526;BME280;66627;29.424;-98.496;2023-09-19T09:01:48;98798.72;;;27.56;47.00
77526;BME280;66627;29.424;-98.496;2023-09-19T09:04:14;98794.59;;;27.75;46.19
77526;BME280;66627;29.424;-98.496;2023-09-19T09:06:39;98791.97;;;27.72;46.72
77526;BME280;66627;29.424;-98.496;2023-09-19T09:09:04;98790.27;;;27.55;46.76
77526;BME280;66627;29.424;-98.496;2023-09-19T09:11:30;98792.73;;;27.97;46.34
77526;BME280;66627;29.424;-98.496;2023-09-19T09:13:55;98792.32;;;27.69;46.72
77526;BME280;66627;29.424;-98.496;2023-09-19T09:16:21;98792.61;;;26.83;48.04
77526;BME280;66627;29.424;-98.496;2023-09-19T09:18:46;98791.62;;;27.39;47.03
77526;BME280;66627;29.424;-98.496;2023-09-19T09:21:11;98792.30;;;27.98;46.60
77526;BME280;66627;29.424;-98.496;2023-09-19T09:23:37;98793.51;;;28.07;45.98
77526;BME280;66627;29.424;-98.496;2023-09-19T09:26:02;98793.87;;;27.76;46.80
77526;BME280;66627;29.424;-98.496;2023-09-19T09:28:29;98787.65;;;27.73;46.71
77526;BME280;66627;29.424;-98.496;2023-09-19T09:30:53;98786.00;;;27.48;47.44
77526;BME280;66627;29.424;-98.496;2023-09-19T09:33:19;98787.37;;;27.22;47.89
77526;BME280;66627;29.424;-98.496;2023-09-19T09:35:49;98785.77;;;27.90;46.31
77526;BME280;66627;29.424;-98.496;2023-09-19T09:38:11;98789.02;;;27.71;46.89
77526;BME280;66627;29.424;-98.496;2023-09-19T09:40:47;98789.62;;;27.76;47.04
77526;BME280;66627;29.424;-98.496;2023-09-19T09:43:03;98792.97;;;27.35;47.43
77526;BME280;66627;29.424;-98.496;2023-09-19T09:45:27;98787.53;;;27.74;46.89
77526;BME280;66627;29.424;-98.496;2023-09-19T09:47:52;98789.58;;;27.66;46.84
77526;BME280;66627;29.424;-98.496;2023-09-19T09:50:28;98792.05;;;27.90;46.82
77526;BME280;66627;29.424;-98.496;2023-09-19T09:52:47;98793.72;;;27.52;47.20
77526;BME280;66627;29.424;-98.496;2023-09-19T09:55:09;98796.56;;;26.47;48.89
77526;BME280;66627;29.424;-98.496;2023-09-19T09:57:34;98792.56;;;26.83;48.99
77526;BME280;66627;29.424;-98.496;2023-09-19T10:00:01;98789.89;;;27.22;47.48
77526;BME280;66627;29.424;-98.496;2023-09-19T10:02:28;98790.90;;;27.39;47.72
77526;BME280;66627;29.424;-98.496;2023-09-19T10:04:52;98793.38;;;27.23;48.23
77526;BME280;66627;29.424;-98.496;2023-09-19T10:07:27;98794.85;;;27.96;46.79
77526;BME280;66627;29.424;-98.496;2023-09-19T10:09:46;98798.56;;;27.66;47.39
77526;BME280;66627;29.424;-98.496;2023-09-19T10:12:09;98800.14;;;27.47;48.01
77526;BME280;66627;29.424;-98.496;2023-09-19T10:14:37;98802.51;;;27.99;46.97
77526;BME280;66627;29.424;-98.496;2023-09-19T10:16:59;98805.55;;;26.95;48.19
77526;BME280;66627;29.424;-98.496;2023-09-19T10:19:30;98809.27;;;27.06;48.08
77526;BME280;66627;29.424;-98.496;2023-09-19T10:21:50;98811.09;;;25.93;50.61
77526;BME280;66627;29.424;-98.496;2023-09-19T10:24:17;98810.21;;;26.99;48.40
77526;BME280;66627;29.424;-98.496;2023-09-19T10:26:41;98812.67;;;26.76;49.30
77526;BME280;66627;29.424;-98.496;2023-09-19T10:29:08;98818.15;;;26.87;48.45
77526;BME280;66627;29.424;-98.496;2023-09-19T10:31:32;98815.35;;;27.31;48.13
77526;BME280;66627;29.424;-98.496;2023-09-19T10:33:57;98816.36;;;26.07;49.75
77526;BME280;66627;29.424;-98.496;2023-09-19T10:36:23;98810.60;;;27.03;48.92
77526;BME280;66627;29.424;-98.496;2023-09-19T10:38:49;98806.57;;;26.64;49.49
77526;BME280;66627;29.424;-98.496;2023-09-19T10:41:15;98810.18;;;27.28;48.57
77526;BME280;66627;29.424;-98.496;2023-09-19T10:43:39;98809.53;;;26.67;49.56
77526;BME280;66627;29.424;-98.496;2023-09-19T10:46:08;98815.37;;;26.67;49.02
77526;BME280;66627;29.424;-98.496;2023-09-19T10:48:30;98816.89;;;27.00;48.89
77526;BME280;66627;29.424;-98.496;2023-09-19T10:51:02;98820.99;;;27.36;48.52
77526;BME280;66627;29.424;-98.496;2023-09-19T10:53:21;98821.78;;;27.07;48.66
77526;BME280;66627;29.424;-98.496;2023-09-19T10:55:51;98820.67;;;26.84;48.57
77526;BME280;66627;29.424;-98.496;2023-09-19T10:58:12;98821.29;;;27.24;48.21
77526;BME280;66627;29.424;-98.496;2023-09-19T11:00:51;98820.38;;;26.86;48.81
77526;BME280;66627;29.424;-98.496;2023-09-19T11:03:16;98819.11;;;26.93;49.51
77526;BME280;66627;29.424;-98.496;2023-09-19T11:05:27;98821.43;;;27.09;48.91
77526;BME280;66627;29.424;-98.496;2023-09-19T11:07:57;98824.92;;;26.79;48.99
77526;BME280;66627;29.424;-98.496;2023-09-19T11:12:50;98831.68;;;26.96;48.44
77526;BME280;66627;29.424;-98.496;2023-09-19T11:15:10;98836.17;;;26.36;50.18
77526;BME280;66627;29.424;-98.496;2023-09-19T11:17:35;98835.81;;;26.97;48.93
77526;BME280;66627;29.424;-98.496;2023-09-19T11:22:25;98840.72;;;26.46;49.02
77526;BME280;66627;29.424;-98.496;2023-09-19T11:24:50;98838.88;;;26.70;49.52
77526;BME280;66627;29.424;-98.496;2023-09-19T11:27:16;98839.78;;;26.61;49.57
77526;BME280;66627;29.424;-98.496;2023-09-19T11:29:42;98838.47;;;26.64;49.66
77526;BME280;66627;29.424;-98.496;2023-09-19T11:32:07;98838.52;;;26.87;49.21
77526;BME280;66627;29.424;-98.496;2023-09-19T11:34:40;98839.22;;;26.75;49.11
77526;BME280;66627;29.424;-98.496;2023-09-19T11:36:59;98835.86;;;26.18;50.40
77526;BME280;66627;29.424;-98.496;2023-09-19T11:39:26;98836.08;;;26.54;49.75
77526;BME280;66627;29.424;-98.496;2023-09-19T11:41:49;98837.73;;;26.50;49.98
77526;BME280;66627;29.424;-98.496;2023-09-19T11:44:32;98840.25;;;26.70;49.46
77526;BME280;66627;29.424;-98.496;2023-09-19T11:46:53;98843.21;;;26.72;49.42
77526;BME280;66627;29.424;-98.496;2023-09-19T11:49:07;98842.55;;;26.19;50.56
77526;BME280;66627;29.424;-98.496;2023-09-19T11:51:40;98840.42;;;26.64;49.16
77526;BME280;66627;29.424;-98.496;2023-09-19T11:53:57;98838.11;;;26.12;49.86
77526;BME280;66627;29.424;-98.496;2023-09-19T11:56:23;98846.73;;;26.23;50.54
77526;BME280;66627;29.424;-98.496;2023-09-19T11:58:50;98848.44;;;26.41;49.78
77526;BME280;66627;29.424;-98.496;2023-09-19T12:01:15;98848.10;;;26.69;50.03
77526;BME280;66627;29.424;-98.496;2023-09-19T12:03:39;98846.99;;;26.20;50.31
77526;BME280;66627;29.424;-98.496;2023-09-19T12:06:12;98848.04;;;26.42;49.96
77526;BME280;66627;29.424;-98.496;2023-09-19T12:08:29;98847.31;;;26.71;50.52
77526;BME280;66627;29.424;-98.496;2023-09-19T12:10:54;98845.76;;;26.18;50.51
77526;BME280;66627;29.424;-98.496;2023-09-19T12:13:19;98846.47;;;26.21;51.03
77526;BME280;66627;29.424;-98.496;2023-09-19T12:15:44;98849.16;;;26.20;50.52
77526;BME280;66627;29.424;-98.496;2023-09-19T12:18:10;98848.83;;;26.61;50.12
77526;BME280;66627;29.424;-98.496;2023-09-19T12:20:43;98848.46;;;26.20;50.24
77526;BME280;66627;29.424;-98.496;2023-09-19T12:23:01;98850.68;;;26.06;49.92
77526;BME280;66627;29.424;-98.496;2023-09-19T12:25:26;98852.07;;;25.85;50.80
77526;BME280;66627;29.424;-98.496;2023-09-19T12:27:52;98855.10;;;26.15;50.23
77526;BME280;66627;29.424;-98.496;2023-09-19T12:30:18;98852.42;;;26.06;50.50
77526;BME280;66627;29.424;-98.496;2023-09-19T12:32:43;98852.81;;;25.80;50.95
77526;BME280;66627;29.424;-98.496;2023-09-19T12:35:09;98853.09;;;26.48;50.36
77526;BME280;66627;29.424;-98.496;2023-09-19T12:37:34;98853.61;;;26.21;51.14
77526;BME280;66627;29.424;-98.496;2023-09-19T12:40:06;98853.51;;;26.03;51.01